sensor_id;sensor_type;location;lat;lon;timestamp;temperature;humidity
3360;DHT22;1693;49.602;11.046;2024-03-06T00:00:38;6.80;99.90
3360;DHT22;1693;49.602;11.046;2024-03-06T00:03:05;6.90;99.90
3360;DHT22;1693;49.602;11.046;2024-03-06T00:05:33;6.90;99.90
3360;DHT22;1693;49.602;11.046;2024-03-06T00:08:00;6.90;99.90
3360;DHT22;1693;49.602;11.046;2024-03-06T00:10:29;6.90;99.90
3360;DHT22;1693;49.602;11.046;2024-03-06T00:12:56;7.00;99.90
3360;DHT22;1693;49.602;11.046;2024-03-06T00:15:23;7.10;99.90
3360;DHT22;1693;49.602;11.046;2024-03-06T00:17:50;7.10;99.90
3360;DHT22;1693;49.602;11.046;2024-03-06T00:20:17;7.20;99.90
3360;DHT22;1693;49.602;11.046;2024-03-06T00:22:45;7.20;99.90
3360;DHT22;1693;49.602;11.046;2024-03-06T00:25:15;7.30;99.90
3360;DHT22;1693;49.602;11.046;2024-03-06T00:27:42;7.50;99.90
3360;DHT22;1693;49.602;11.046;2024-03-06T00:30:11;7.50;99.90
3360;DHT22;1693;49.602;11.046;2024-03-06T00:32:38;7.60;99.90
3360;DHT22;1693;49.602;11.046;2024-03-06T00:35:06;7.60;99.90
3360;DHT22;1693;49.602;11.046;2024-03-06T00:37:33;7.60;99.90
3360;DHT22;1693;49.602;11.046;2024-03-06T00:40:01;7.60;99.90
3360;DHT22;1693;49.602;11.046;2024-03-06T00:42:29;7.40;99.90
3360;DHT22;1693;49.602;11.046;2024-03-06T00:44:55;7.40;99.90
3360;DHT22;1693;49.602;11.046;2024-03-06T00:47:23;7.40;99.90
3360;DHT22;1693;49.602;11.046;2024-03-06T00:49:49;7.30;99.90
3360;DHT22;1693;49.602;11.046;2024-03-06T00:52:19;7.40;99.90
3360;DHT22;1693;49.602;11.046;2024-03-06T00:54:47;7.50;99.90
3360;DHT22;1693;49.602;11.046;2024-03-06T00:57:17;7.60;99.90
3360;DHT22;1693;49.602;11.046;2024-03-06T00:59:44;7.50;99.90
3360;DHT22;1693;49.602;11.046;2024-03-06T01:02:11;7.60;99.90
3360;DHT22;1693;49.602;11.046;2024-03-06T01:04:38;7.70;99.90
3360;DHT22;1693;49.602;11.046;2024-03-06T01:07:09;7.70;99.90
3360;DHT22;1693;49.602;11.046;2024-03-06T01:09:37;7.70;99.90
3360;DHT22;1693;49.602;11.046;2024-03-06T01:12:07;7.80;99.90
3360;DHT22;1693;49.602;11.046;2024-03-06T01:14:36;7.60;99.90
3360;DHT22;1693;49.602;11.046;2024-03-06T01:17:03;7.50;99.90
3360;DHT22;1693;49.602;11.046;2024-03-06T01:19:32;7.40;99.90
3360;DHT22;1693;49.602;11.046;2024-03-06T01:21:59;7.20;99.90
3360;DHT22;1693;49.602;11.046;2024-03-06T01:24:26;7.10;99.90
3360;DHT22;1693;49.602;11.046;2024-03-06T01:26:53;6.90;99.90
3360;DHT22;1693;49.602;11.046;2024-03-06T01:29:21;6.90;99.90
3360;DHT22;1693;49.602;11.046;2024-03-06T01:31:52;6.80;99.90
3360;DHT22;1693;49.602;11.046;2024-03-06T01:34:19;6.80;99.90
3360;DHT22;1693;49.602;11.046;2024-03-06T01:36:47;6.80;99.90
3360;DHT22;1693;49.602;11.046;2024-03-06T01:39:15;6.80;99.90
3360;DHT22;1693;49.602;11.046;2024-03-06T01:41:45;6.80;99.90
3360;DHT22;1693;49.602;11.046;2024-03-06T01:44:15;6.70;99.90
3360;DHT22;1693;49.602;11.046;2024-03-06T01:46:43;6.70;99.90
3360;DHT22;1693;49.602;11.046;2024-03-06T01:49:12;6.70;99.90
3360;DHT22;1693;49.602;11.046;2024-03-06T01:51:40;6.70;99.90
3360;DHT22;1693;49.602;11.046;2024-03-06T01:54:06;6.70;99.90
3360;DHT22;1693;49.602;11.046;2024-03-06T01:56:35;6.70;99.90
3360;DHT22;1693;49.602;11.046;2024-03-06T01:59:04;6.70;99.90
3360;DHT22;1693;49.602;11.046;2024-03-06T02:01:32;6.80;99.90
3360;DHT22;1693;49.602;11.046;2024-03-06T02:04:00;6.70;99.90
3360;DHT22;1693;49.602;11.046;2024-03-06T02:06:30;6.70;99.90
3360;DHT22;1693;49.602;11.046;2024-03-06T02:08:57;6.70;99.90
3360;DHT22;1693;49.602;11.046;2024-03-06T02:11:24;6.80;99.90
3360;DHT22;1693;49.602;11.046;2024-03-06T02:13:50;7.00;99.90
3360;DHT22;1693;49.602;11.046;2024-03-06T02:16:17;6.80;99.90
3360;DHT22;1693;49.602;11.046;2024-03-06T02:18:54;6.70;99.90
3360;DHT22;1693;49.602;11.046;2024-03-06T02:21:29;6.70;99.90
3360;DHT22;1693;49.602;11.046;2024-03-06T02:23:57;6.60;99.90
3360;DHT22;1693;49.602;11.046;2024-03-06T02:26:24;6.60;99.90
3360;DHT22;1693;49.602;11.046;2024-03-06T02:28:51;6.60;99.90
3360;DHT22;1693;49.602;11.046;2024-03-06T02:31:19;6.50;99.90
3360;DHT22;1693;49.602;11.046;2024-03-06T02:33:48;6.50;99.90
3360;DHT22;1693;49.602;11.046;2024-03-06T02:36:15;6.40;99.90
3360;DHT22;1693;49.602;11.046;2024-03-06T02:38:44;6.40;99.90
3360;DHT22;1693;49.602;11.046;2024-03-06T02:41:12;6.40;99.90
3360;DHT22;1693;49.602;11.046;2024-03-06T02:43:41;6.40;99.90
3360;DHT22;1693;49.602;11.046;2024-03-06T02:46:08;6.60;99.90
3360;DHT22;1693;49.602;11.046;2024-03-06T02:48:35;6.70;99.90
3360;DHT22;1693;49.602;11.046;2024-03-06T02:51:03;6.70;99.90
3360;DHT22;1693;49.602;11.046;2024-03-06T02:53:30;6.60;99.90
3360;DHT22;1693;49.602;11.046;2024-03-06T02:55:58;6.50;99.90
3360;DHT22;1693;49.602;11.046;2024-03-06T02:58:27;6.40;99.90
3360;DHT22;1693;49.602;11.046;2024-03-06T03:01:01;6.40;99.90
3360;DHT22;1693;49.602;11.046;2024-03-06T03:03:34;6.50;99.90
3360;DHT22;1693;49.602;11.046;2024-03-06T03:06:01;6.40;99.90
3360;DHT22;1693;49.602;11.046;2024-03-06T03:08:32;6.50;99.90
3360;DHT22;1693;49.602;11.046;2024-03-06T03:11:00;6.50;99.90
3360;DHT22;1693;49.602;11.046;2024-03-06T03:13:28;6.50;99.90
3360;DHT22;1693;49.602;11.046;2024-03-06T03:15:56;6.50;99.90
3360;DHT22;1693;49.602;11.046;2024-03-06T03:18:23;6.60;99.90
3360;DHT22;1693;49.602;11.046;2024-03-06T03:20:50;6.60;99.90
3360;DHT22;1693;49.602;11.046;2024-03-06T03:23:17;6.60;99.90
3360;DHT22;1693;49.602;11.046;2024-03-06T03:25:48;6.60;99.90
3360;DHT22;1693;49.602;11.046;2024-03-06T03:28:16;6.60;99.90
3360;DHT22;1693;49.602;11.046;2024-03-06T03:30:43;6.60;99.90
3360;DHT22;1693;49.602;11.046;2024-03-06T03:33:11;6.60;99.90
3360;DHT22;1693;49.602;11.046;2024-03-06T03:35:38;6.60;99.90
3360;DHT22;1693;49.602;11.046;2024-03-06T03:38:08;6.70;99.90
3360;DHT22;1693;49.602;11.046;2024-03-06T03:40:36;6.60;99.90
3360;DHT22;1693;49.602;11.046;2024-03-06T03:43:04;6.70;99.90
3360;DHT22;1693;49.602;11.046;2024-03-06T03:45:33;6.60;99.90
3360;DHT22;1693;49.602;11.046;2024-03-06T03:48:02;6.60;99.90
3360;DHT22;1693;49.602;11.046;2024-03-06T03:50:30;6.70;99.90
3360;DHT22;1693;49.602;11.046;2024-03-06T03:52:58;6.70;99.90
3360;DHT22;1693;49.602;11.046;2024-03-06T03:55:27;6.80;99.90
3360;DHT22;1693;49.602;11.046;2024-03-06T03:57:54;6.70;99.90
3360;DHT22;1693;49.602;11.046;2024-03-06T04:00:22;6.70;99.90
3360;DHT22;1693;49.602;11.046;2024-03-06T04:02:51;6.90;99.90
3360;DHT22;1693;49.602;11.046;2024-03-06T04:05:18;7.00;99.90
3360;DHT22;1693;49.602;11.046;2024-03-06T04:07:47;7.00;99.90
3360;DHT22;1693;49.602;11.046;2024-03-06T04:10:14;7.20;99.90
3360;DHT22;1693;49.602;11.046;2024-03-06T04:12:43;7.30;99.90
3360;DHT22;1693;49.602;11.046;2024-03-06T04:15:11;7.30;99.90
3360;DHT22;1693;49.602;11.046;2024-03-06T04:17:41;7.10;99.90
3360;DHT22;1693;49.602;11.046;2024-03-06T04:20:10;7.10;99.90
3360;DHT22;1693;49.602;11.046;2024-03-06T04:22:38;7.00;99.90
3360;DHT22;1693;49.602;11.046;2024-03-06T04:25:09;7.10;99.90
3360;DHT22;1693;49.602;11.046;2024-03-06T04:27:36;7.20;99.90
3360;DHT22;1693;49.602;11.046;2024-03-06T04:30:04;7.30;99.90
3360;DHT22;1693;49.602;11.046;2024-03-06T04:32:31;7.30;99.90
3360;DHT22;1693;49.602;11.046;2024-03-06T04:34:58;7.30;99.90
3360;DHT22;1693;49.602;11.046;2024-03-06T04:37:26;7.30;99.90
3360;DHT22;1693;49.602;11.046;2024-03-06T04:39:55;7.30;99.90
3360;DHT22;1693;49.602;11.046;2024-03-06T04:42:22;7.40;99.90
3360;DHT22;1693;49.602;11.046;2024-03-06T04:44:49;7.20;99.90
3360;DHT22;1693;49.602;11.046;2024-03-06T04:47:16;7.10;99.90
3360;DHT22;1693;49.602;11.046;2024-03-06T04:49:43;7.10;99.90
3360;DHT22;1693;49.602;11.046;2024-03-06T04:52:10;7.10;99.90
3360;DHT22;1693;49.602;11.046;2024-03-06T04:54:38;6.90;99.90
3360;DHT22;1693;49.602;11.046;2024-03-06T04:57:06;6.90;99.90
3360;DHT22;1693;49.602;11.046;2024-03-06T04:59:33;7.00;99.90
3360;DHT22;1693;49.602;11.046;2024-03-06T05:02:00;6.90;99.90
3360;DHT22;1693;49.602;11.046;2024-03-06T05:04:28;6.80;99.90
3360;DHT22;1693;49.602;11.046;2024-03-06T05:06:55;6.80;99.90
3360;DHT22;1693;49.602;11.046;2024-03-06T05:09:22;6.80;99.90
3360;DHT22;1693;49.602;11.046;2024-03-06T05:12:08;6.80;99.90
3360;DHT22;1693;49.602;11.046;2024-03-06T05:14:38;6.80;99.90
3360;DHT22;1693;49.602;11.046;2024-03-06T05:17:05;6.80;99.90
3360;DHT22;1693;49.602;11.046;2024-03-06T05:19:32;6.90;99.90
3360;DHT22;1693;49.602;11.046;2024-03-06T05:21:59;7.10;99.90
3360;DHT22;1693;49.602;11.046;2024-03-06T05:24:25;7.10;99.90
3360;DHT22;1693;49.602;11.046;2024-03-06T05:26:52;7.10;99.90
3360;DHT22;1693;49.602;11.046;2024-03-06T05:29:21;7.00;99.90
3360;DHT22;1693;49.602;11.046;2024-03-06T05:31:48;6.90;99.90
3360;DHT22;1693;49.602;11.046;2024-03-06T05:34:15;6.90;99.90
3360;DHT22;1693;49.602;11.046;2024-03-06T05:36:43;6.80;99.90
3360;DHT22;1693;49.602;11.046;2024-03-06T05:39:10;6.80;99.90
3360;DHT22;1693;49.602;11.046;2024-03-06T05:41:38;6.80;99.90
3360;DHT22;1693;49.602;11.046;2024-03-06T05:44:05;6.90;99.90
3360;DHT22;1693;49.602;11.046;2024-03-06T05:46:34;6.80;99.90
3360;DHT22;1693;49.602;11.046;2024-03-06T05:49:01;6.80;99.90
3360;DHT22;1693;49.602;11.046;2024-03-06T05:51:30;6.80;99.90
3360;DHT22;1693;49.602;11.046;2024-03-06T05:53:57;6.90;99.90
3360;DHT22;1693;49.602;11.046;2024-03-06T05:56:25;6.80;99.90
3360;DHT22;1693;49.602;11.046;2024-03-06T05:58:52;6.80;99.90
3360;DHT22;1693;49.602;11.046;2024-03-06T06:01:20;6.70;99.90
3360;DHT22;1693;49.602;11.046;2024-03-06T06:03:49;6.70;99.90
3360;DHT22;1693;49.602;11.046;2024-03-06T06:06:17;6.80;99.90
3360;DHT22;1693;49.602;11.046;2024-03-06T06:08:46;6.70;99.90
3360;DHT22;1693;49.602;11.046;2024-03-06T06:11:13;6.80;99.90
3360;DHT22;1693;49.602;11.046;2024-03-06T06:13:41;6.80;99.90
3360;DHT22;1693;49.602;11.046;2024-03-06T06:16:09;6.80;99.90
3360;DHT22;1693;49.602;11.046;2024-03-06T06:18:36;7.00;99.90
3360;DHT22;1693;49.602;11.046;2024-03-06T06:21:06;7.20;99.90
3360;DHT22;1693;49.602;11.046;2024-03-06T06:23:33;7.20;99.90
3360;DHT22;1693;49.602;11.046;2024-03-06T06:26:03;7.10;99.90
3360;DHT22;1693;49.602;11.046;2024-03-06T06:28:31;7.20;99.90
3360;DHT22;1693;49.602;11.046;2024-03-06T06:30:58;7.00;99.90
3360;DHT22;1693;49.602;11.046;2024-03-06T06:33:25;6.90;99.90
3360;DHT22;1693;49.602;11.046;2024-03-06T06:35:51;6.90;99.90
3360;DHT22;1693;49.602;11.046;2024-03-06T06:38:21;7.00;99.90
3360;DHT22;1693;49.602;11.046;2024-03-06T06:40:48;7.00;99.90
3360;DHT22;1693;49.602;11.046;2024-03-06T06:43:15;6.90;99.90
3360;DHT22;1693;49.602;11.046;2024-03-06T06:45:42;7.00;99.90
3360;DHT22;1693;49.602;11.046;2024-03-06T06:48:10;7.10;99.90
3360;DHT22;1693;49.602;11.046;2024-03-06T06:50:37;7.20;99.90
3360;DHT22;1693;49.602;11.046;2024-03-06T06:53:04;7.20;99.90
3360;DHT22;1693;49.602;11.046;2024-03-06T06:55:33;7.20;99.90
3360;DHT22;1693;49.602;11.046;2024-03-06T06:58:03;7.20;99.90
3360;DHT22;1693;49.602;11.046;2024-03-06T07:00:33;7.20;99.90
3360;DHT22;1693;49.602;11.046;2024-03-06T07:03:04;7.20;99.90
3360;DHT22;1693;49.602;11.046;2024-03-06T07:05:34;7.30;99.90
3360;DHT22;1693;49.602;11.046;2024-03-06T07:08:03;7.30;99.90
3360;DHT22;1693;49.602;11.046;2024-03-06T07:10:35;7.40;99.90
3360;DHT22;1693;49.602;11.046;2024-03-06T07:13:02;7.40;99.90
3360;DHT22;1693;49.602;11.046;2024-03-06T07:15:30;7.50;99.90
3360;DHT22;1693;49.602;11.046;2024-03-06T07:17:58;7.70;99.90
3360;DHT22;1693;49.602;11.046;2024-03-06T07:20:27;7.80;99.90
3360;DHT22;1693;49.602;11.046;2024-03-06T07:22:55;7.90;99.90
3360;DHT22;1693;49.602;11.046;2024-03-06T07:25:22;8.20;99.90
3360;DHT22;1693;49.602;11.046;2024-03-06T07:27:51;8.40;99.90
3360;DHT22;1693;49.602;11.046;2024-03-06T07:30:18;8.50;99.90
3360;DHT22;1693;49.602;11.046;2024-03-06T07:32:46;8.70;99.90
3360;DHT22;1693;49.602;11.046;2024-03-06T07:35:13;8.90;99.90
3360;DHT22;1693;49.602;11.046;2024-03-06T07:37:44;9.00;99.90
3360;DHT22;1693;49.602;11.046;2024-03-06T07:40:14;8.90;99.90
3360;DHT22;1693;49.602;11.046;2024-03-06T07:42:42;8.80;99.90
3360;DHT22;1693;49.602;11.046;2024-03-06T07:45:11;8.80;99.90
3360;DHT22;1693;49.602;11.046;2024-03-06T07:47:38;8.70;99.90
3360;DHT22;1693;49.602;11.046;2024-03-06T07:50:07;8.70;99.90
3360;DHT22;1693;49.602;11.046;2024-03-06T07:52:37;8.60;99.90
3360;DHT22;1693;49.602;11.046;2024-03-06T07:55:09;8.60;99.90
3360;DHT22;1693;49.602;11.046;2024-03-06T07:57:36;8.60;99.90
3360;DHT22;1693;49.602;11.046;2024-03-06T08:00:07;8.60;99.90
3360;DHT22;1693;49.602;11.046;2024-03-06T08:02:43;8.70;99.90
3360;DHT22;1693;49.602;11.046;2024-03-06T08:05:13;8.60;99.90
3360;DHT22;1693;49.602;11.046;2024-03-06T08:07:42;8.70;99.90
3360;DHT22;1693;49.602;11.046;2024-03-06T08:10:11;8.60;99.90
3360;DHT22;1693;49.602;11.046;2024-03-06T08:12:49;8.60;99.90
3360;DHT22;1693;49.602;11.046;2024-03-06T08:15:18;8.70;99.90
3360;DHT22;1693;49.602;11.046;2024-03-06T08:17:49;8.70;99.90
3360;DHT22;1693;49.602;11.046;2024-03-06T08:20:19;8.80;99.90
3360;DHT22;1693;49.602;11.046;2024-03-06T08:22:49;8.90;99.90
3360;DHT22;1693;49.602;11.046;2024-03-06T08:25:16;8.80;99.90
3360;DHT22;1693;49.602;11.046;2024-03-06T08:27:46;8.90;99.90
3360;DHT22;1693;49.602;11.046;2024-03-06T08:30:20;8.90;99.90
3360;DHT22;1693;49.602;11.046;2024-03-06T08:32:52;9.00;99.90
3360;DHT22;1693;49.602;11.046;2024-03-06T08:35:22;9.10;99.90
3360;DHT22;1693;49.602;11.046;2024-03-06T08:37:56;9.40;99.90
3360;DHT22;1693;49.602;11.046;2024-03-06T08:40:23;9.30;99.90
3360;DHT22;1693;49.602;11.046;2024-03-06T08:42:52;9.30;99.90
3360;DHT22;1693;49.602;11.046;2024-03-06T08:45:20;9.40;99.90
3360;DHT22;1693;49.602;11.046;2024-03-06T08:47:49;9.50;99.90
3360;DHT22;1693;49.602;11.046;2024-03-06T08:50:20;9.60;99.90
3360;DHT22;1693;49.602;11.046;2024-03-06T08:52:47;9.70;99.90
3360;DHT22;1693;49.602;11.046;2024-03-06T08:55:14;9.80;99.90
3360;DHT22;1693;49.602;11.046;2024-03-06T08:57:43;10.00;99.90
3360;DHT22;1693;49.602;11.046;2024-03-06T09:00:13;10.10;99.90
3360;DHT22;1693;49.602;11.046;2024-03-06T09:02:42;10.20;99.90
3360;DHT22;1693;49.602;11.046;2024-03-06T09:05:11;10.10;99.90
3360;DHT22;1693;49.602;11.046;2024-03-06T09:07:39;9.70;99.90
3360;DHT22;1693;49.602;11.046;2024-03-06T09:10:08;9.70;99.90
3360;DHT22;1693;49.602;11.046;2024-03-06T09:12:35;9.90;99.90
3360;DHT22;1693;49.602;11.046;2024-03-06T09:15:03;9.90;99.90
3360;DHT22;1693;49.602;11.046;2024-03-06T09:17:33;10.20;99.90
3360;DHT22;1693;49.602;11.046;2024-03-06T09:20:01;10.40;99.90
3360;DHT22;1693;49.602;11.046;2024-03-06T09:22:39;10.40;99.90
3360;DHT22;1693;49.602;11.046;2024-03-06T09:25:09;10.20;99.90
3360;DHT22;1693;49.602;11.046;2024-03-06T09:27:38;10.00;99.90
3360;DHT22;1693;49.602;11.046;2024-03-06T09:30:08;10.30;99.90
3360;DHT22;1693;49.602;11.046;2024-03-06T09:32:37;10.20;99.90
3360;DHT22;1693;49.602;11.046;2024-03-06T09:35:06;10.00;99.90
3360;DHT22;1693;49.602;11.046;2024-03-06T09:37:33;10.00;99.90
3360;DHT22;1693;49.602;11.046;2024-03-06T09:40:05;9.90;99.90
3360;DHT22;1693;49.602;11.046;2024-03-06T09:42:34;9.90;99.90
3360;DHT22;1693;49.602;11.046;2024-03-06T09:45:03;9.60;99.90
3360;DHT22;1693;49.602;11.046;2024-03-06T09:47:32;9.80;99.90
3360;DHT22;1693;49.602;11.046;2024-03-06T09:50:03;9.90;99.90
3360;DHT22;1693;49.602;11.046;2024-03-06T09:52:32;10.10;99.90
3360;DHT22;1693;49.602;11.046;2024-03-06T09:55:06;10.30;99.90
3360;DHT22;1693;49.602;11.046;2024-03-06T09:57:35;10.30;99.90
3360;DHT22;1693;49.602;11.046;2024-03-06T10:00:04;10.90;99.90
3360;DHT22;1693;49.602;11.046;2024-03-06T10:02:38;11.00;99.90
3360;DHT22;1693;49.602;11.046;2024-03-06T10:05:09;11.10;99.90
3360;DHT22;1693;49.602;11.046;2024-03-06T10:07:48;10.70;99.90
3360;DHT22;1693;49.602;11.046;2024-03-06T10:10:21;10.40;99.90
3360;DHT22;1693;49.602;11.046;2024-03-06T10:12:49;10.60;99.90
3360;DHT22;1693;49.602;11.046;2024-03-06T10:15:17;10.60;99.90
3360;DHT22;1693;49.602;11.046;2024-03-06T10:17:45;10.50;99.90
3360;DHT22;1693;49.602;11.046;2024-03-06T10:20:22;10.90;99.90
3360;DHT22;1693;49.602;11.046;2024-03-06T10:22:52;11.00;99.90
3360;DHT22;1693;49.602;11.046;2024-03-06T10:25:21;11.10;99.90
3360;DHT22;1693;49.602;11.046;2024-03-06T10:28:04;11.40;99.90
3360;DHT22;1693;49.602;11.046;2024-03-06T10:30:33;11.80;99.90
3360;DHT22;1693;49.602;11.046;2024-03-06T10:33:02;11.20;99.90
3360;DHT22;1693;49.602;11.046;2024-03-06T10:35:29;11.20;99.90
3360;DHT22;1693;49.602;11.046;2024-03-06T10:38:00;11.40;99.90
3360;DHT22;1693;49.602;11.046;2024-03-06T10:40:31;11.50;99.90
3360;DHT22;1693;49.602;11.046;2024-03-06T10:43:01;11.50;99.90
3360;DHT22;1693;49.602;11.046;2024-03-06T10:45:39;11.60;99.90
3360;DHT22;1693;49.602;11.046;2024-03-06T10:48:09;11.50;99.90
3360;DHT22;1693;49.602;11.046;2024-03-06T10:50:41;11.20;99.90
3360;DHT22;1693;49.602;11.046;2024-03-06T10:53:11;11.10;99.90
3360;DHT22;1693;49.602;11.046;2024-03-06T10:55:43;11.20;99.90
3360;DHT22;1693;49.602;11.046;2024-03-06T10:58:12;11.20;99.90
3360;DHT22;1693;49.602;11.046;2024-03-06T11:00:40;11.10;99.90
3360;DHT22;1693;49.602;11.046;2024-03-06T11:03:09;11.10;99.90
3360;DHT22;1693;49.602;11.046;2024-03-06T11:05:40;10.80;99.90
3360;DHT22;1693;49.602;11.046;2024-03-06T11:08:11;11.00;99.90
3360;DHT22;1693;49.602;11.046;2024-03-06T11:10:50;10.90;99.90
3360;DHT22;1693;49.602;11.046;2024-03-06T11:13:22;10.90;99.90
3360;DHT22;1693;49.602;11.046;2024-03-06T11:15:51;10.90;99.90
3360;DHT22;1693;49.602;11.046;2024-03-06T11:18:42;10.60;99.90
3360;DHT22;1693;49.602;11.046;2024-03-06T11:21:31;10.60;99.90
3360;DHT22;1693;49.602;11.046;2024-03-06T11:24:19;10.70;99.90
3360;DHT22;1693;49.602;11.046;2024-03-06T11:26:57;10.70;99.90
3360;DHT22;1693;49.602;11.046;2024-03-06T11:30:09;10.50;99.90
3360;DHT22;1693;49.602;11.046;2024-03-06T11:32:58;10.40;99.90
3360;DHT22;1693;49.602;11.046;2024-03-06T11:35:41;10.40;99.90
3360;DHT22;1693;49.602;11.046;2024-03-06T11:38:10;10.50;99.90
3360;DHT22;1693;49.602;11.046;2024-03-06T11:40:54;10.60;99.90
3360;DHT22;1693;49.602;11.046;2024-03-06T11:43:25;10.70;99.90
3360;DHT22;1693;49.602;11.046;2024-03-06T11:45:53;10.60;99.90
3360;DHT22;1693;49.602;11.046;2024-03-06T11:48:20;10.50;99.90
3360;DHT22;1693;49.602;11.046;2024-03-06T11:50:48;10.60;99.90
3360;DHT22;1693;49.602;11.046;2024-03-06T11:53:19;10.70;99.90
3360;DHT22;1693;49.602;11.046;2024-03-06T11:55:48;10.50;99.90
3360;DHT22;1693;49.602;11.046;2024-03-06T11:58:17;10.50;99.90
3360;DHT22;1693;49.602;11.046;2024-03-06T12:00:53;10.60;99.90
3360;DHT22;1693;49.602;11.046;2024-03-06T12:03:35;10.60;99.90
3360;DHT22;1693;49.602;11.046;2024-03-06T12:06:05;10.70;99.90
3360;DHT22;1693;49.602;11.046;2024-03-06T12:08:33;10.80;99.90
3360;DHT22;1693;49.602;11.046;2024-03-06T12:11:04;10.80;99.90
3360;DHT22;1693;49.602;11.046;2024-03-06T12:13:35;10.80;99.90
3360;DHT22;1693;49.602;11.046;2024-03-06T12:16:06;11.00;99.90
3360;DHT22;1693;49.602;11.046;2024-03-06T12:18:36;11.10;99.90
3360;DHT22;1693;49.602;11.046;2024-03-06T12:21:04;11.10;99.90
3360;DHT22;1693;49.602;11.046;2024-03-06T12:23:31;11.30;99.90
3360;DHT22;1693;49.602;11.046;2024-03-06T12:26:06;11.50;99.90
3360;DHT22;1693;49.602;11.046;2024-03-06T12:28:34;11.50;99.90
3360;DHT22;1693;49.602;11.046;2024-03-06T12:31:05;11.50;99.90
3360;DHT22;1693;49.602;11.046;2024-03-06T12:33:34;11.70;99.90
3360;DHT22;1693;49.602;11.046;2024-03-06T12:36:03;11.80;99.90
3360;DHT22;1693;49.602;11.046;2024-03-06T12:38:30;11.80;99.90
3360;DHT22;1693;49.602;11.046;2024-03-06T12:40:59;12.10;99.90
3360;DHT22;1693;49.602;11.046;2024-03-06T12:43:28;12.30;99.90
3360;DHT22;1693;49.602;11.046;2024-03-06T12:45:59;12.70;99.90
3360;DHT22;1693;49.602;11.046;2024-03-06T12:48:31;13.10;99.90
3360;DHT22;1693;49.602;11.046;2024-03-06T12:51:02;13.40;99.90
3360;DHT22;1693;49.602;11.046;2024-03-06T12:53:30;13.60;99.90
3360;DHT22;1693;49.602;11.046;2024-03-06T12:55:58;14.20;99.90
3360;DHT22;1693;49.602;11.046;2024-03-06T12:58:25;13.90;99.90
3360;DHT22;1693;49.602;11.046;2024-03-06T13:00:52;13.70;99.90
3360;DHT22;1693;49.602;11.046;2024-03-06T13:03:20;14.20;99.90
3360;DHT22;1693;49.602;11.046;2024-03-06T13:05:47;13.80;99.90
3360;DHT22;1693;49.602;11.046;2024-03-06T13:08:15;13.70;99.90
3360;DHT22;1693;49.602;11.046;2024-03-06T13:10:42;13.50;99.90
3360;DHT22;1693;49.602;11.046;2024-03-06T13:13:10;13.20;99.90
3360;DHT22;1693;49.602;11.046;2024-03-06T13:15:38;13.10;99.90
3360;DHT22;1693;49.602;11.046;2024-03-06T13:18:05;13.00;99.90
3360;DHT22;1693;49.602;11.046;2024-03-06T13:20:33;12.90;99.90
3360;DHT22;1693;49.602;11.046;2024-03-06T13:23:01;12.60;99.90
3360;DHT22;1693;49.602;11.046;2024-03-06T13:25:30;12.30;99.90
3360;DHT22;1693;49.602;11.046;2024-03-06T13:27:59;12.30;99.90
3360;DHT22;1693;49.602;11.046;2024-03-06T13:30:26;12.10;99.90
3360;DHT22;1693;49.602;11.046;2024-03-06T13:32:53;12.10;99.90
3360;DHT22;1693;49.602;11.046;2024-03-06T13:35:20;12.20;99.90
3360;DHT22;1693;49.602;11.046;2024-03-06T13:37:48;12.50;99.90
3360;DHT22;1693;49.602;11.046;2024-03-06T13:40:15;12.90;99.90
3360;DHT22;1693;49.602;11.046;2024-03-06T13:42:44;13.00;99.90
3360;DHT22;1693;49.602;11.046;2024-03-06T13:45:11;12.90;99.90
3360;DHT22;1693;49.602;11.046;2024-03-06T13:47:40;12.80;99.90
3360;DHT22;1693;49.602;11.046;2024-03-06T13:50:08;12.70;99.90
3360;DHT22;1693;49.602;11.046;2024-03-06T13:52:36;12.80;99.90
3360;DHT22;1693;49.602;11.046;2024-03-06T13:55:03;13.00;99.90
3360;DHT22;1693;49.602;11.046;2024-03-06T13:57:31;13.10;99.90
3360;DHT22;1693;49.602;11.046;2024-03-06T14:00:01;13.10;99.90
3360;DHT22;1693;49.602;11.046;2024-03-06T14:02:28;13.00;99.90
3360;DHT22;1693;49.602;11.046;2024-03-06T14:04:55;12.80;99.90
3360;DHT22;1693;49.602;11.046;2024-03-06T14:07:23;13.00;99.90
3360;DHT22;1693;49.602;11.046;2024-03-06T14:09:50;12.70;99.90
3360;DHT22;1693;49.602;11.046;2024-03-06T14:12:17;12.70;99.90
3360;DHT22;1693;49.602;11.046;2024-03-06T14:14:44;12.60;99.90
3360;DHT22;1693;49.602;11.046;2024-03-06T14:17:13;12.70;99.90
3360;DHT22;1693;49.602;11.046;2024-03-06T14:19:40;13.00;99.90
3360;DHT22;1693;49.602;11.046;2024-03-06T14:22:07;12.70;99.90
3360;DHT22;1693;49.602;11.046;2024-03-06T14:24:34;12.80;99.90
3360;DHT22;1693;49.602;11.046;2024-03-06T14:27:02;12.70;99.90
3360;DHT22;1693;49.602;11.046;2024-03-06T14:29:29;12.60;99.90
3360;DHT22;1693;49.602;11.046;2024-03-06T14:31:56;12.70;99.90
3360;DHT22;1693;49.602;11.046;2024-03-06T14:34:24;12.40;99.90
3360;DHT22;1693;49.602;11.046;2024-03-06T14:39:19;12.10;99.90
3360;DHT22;1693;49.602;11.046;2024-03-06T14:41:47;12.10;99.90
3360;DHT22;1693;49.602;11.046;2024-03-06T14:44:14;12.10;99.90
3360;DHT22;1693;49.602;11.046;2024-03-06T14:46:41;12.20;99.90
3360;DHT22;1693;49.602;11.046;2024-03-06T14:49:09;12.40;99.90
3360;DHT22;1693;49.602;11.046;2024-03-06T14:51:38;12.30;99.90
3360;DHT22;1693;49.602;11.046;2024-03-06T14:54:05;12.40;99.90
3360;DHT22;1693;49.602;11.046;2024-03-06T14:56:32;12.30;99.90
3360;DHT22;1693;49.602;11.046;2024-03-06T14:59:00;12.20;99.90
3360;DHT22;1693;49.602;11.046;2024-03-06T15:01:27;12.20;99.90
3360;DHT22;1693;49.602;11.046;2024-03-06T15:03:54;12.30;99.90
3360;DHT22;1693;49.602;11.046;2024-03-06T15:06:21;12.30;99.90
3360;DHT22;1693;49.602;11.046;2024-03-06T15:08:50;12.30;99.90
3360;DHT22;1693;49.602;11.046;2024-03-06T15:11:17;12.30;99.90
3360;DHT22;1693;49.602;11.046;2024-03-06T15:13:44;12.10;99.90
3360;DHT22;1693;49.602;11.046;2024-03-06T15:16:11;12.00;99.90
3360;DHT22;1693;49.602;11.046;2024-03-06T15:18:39;11.70;99.90
3360;DHT22;1693;49.602;11.046;2024-03-06T15:21:06;11.70;99.90
3360;DHT22;1693;49.602;11.046;2024-03-06T15:23:34;11.50;99.90
3360;DHT22;1693;49.602;11.046;2024-03-06T15:26:03;11.40;99.90
3360;DHT22;1693;49.602;11.046;2024-03-06T15:28:29;11.30;99.90
3360;DHT22;1693;49.602;11.046;2024-03-06T15:30:56;11.40;99.90
3360;DHT22;1693;49.602;11.046;2024-03-06T15:33:23;11.30;99.90
3360;DHT22;1693;49.602;11.046;2024-03-06T15:35:51;11.20;99.90
3360;DHT22;1693;49.602;11.046;2024-03-06T15:38:18;11.30;99.90
3360;DHT22;1693;49.602;11.046;2024-03-06T15:40:45;11.50;99.90
3360;DHT22;1693;49.602;11.046;2024-03-06T15:43:17;11.60;99.90
3360;DHT22;1693;49.602;11.046;2024-03-06T15:45:44;11.60;99.90
3360;DHT22;1693;49.602;11.046;2024-03-06T15:48:11;11.60;99.90
3360;DHT22;1693;49.602;11.046;2024-03-06T15:50:39;11.70;99.90
3360;DHT22;1693;49.602;11.046;2024-03-06T15:53:06;11.70;99.90
3360;DHT22;1693;49.602;11.046;2024-03-06T15:55:34;11.80;99.90
3360;DHT22;1693;49.602;11.046;2024-03-06T15:58:02;11.80;99.90
3360;DHT22;1693;49.602;11.046;2024-03-06T16:00:31;11.50;99.90
3360;DHT22;1693;49.602;11.046;2024-03-06T16:02:59;11.50;99.90
3360;DHT22;1693;49.602;11.046;2024-03-06T16:05:26;11.20;99.90
3360;DHT22;1693;49.602;11.046;2024-03-06T16:07:58;11.20;99.90